createdAt,value
2022-10-21T00:01:47.878Z,68.99
2022-10-21T00:03:49.188Z,69.52
2022-10-21T00:05:50.454Z,68.26
2022-10-21T00:07:51.754Z,69.03
2022-10-21T00:09:53.069Z,68.51
2022-10-21T00:11:54.363Z,69.08
2022-10-21T00:13:55.627Z,69.46
2022-10-21T00:15:56.958Z,69.84
2022-10-21T00:17:58.227Z,64.36
2022-10-21T00:19:59.506Z,67.97
2022-10-21T00:22:00.992Z,68.89
2022-10-21T00:24:02.340Z,69.46
2022-10-21T00:26:03.838Z,69.52
2022-10-21T00:28:05.095Z,69.86
2022-10-21T00:30:06.351Z,70.16
2022-10-21T00:32:08.012Z,70.26
2022-10-21T00:34:09.281Z,70.60
2022-10-21T00:36:14.759Z,70.64
2022-10-21T00:38:16.101Z,70.80
2022-10-21T00:40:17.402Z,71.03
2022-10-21T00:42:18.669Z,71.22
2022-10-21T00:44:20.010Z,71.66
2022-10-21T00:46:21.313Z,71.94
2022-10-21T00:48:22.594Z,71.88
2022-10-21T00:50:23.862Z,71.66
2022-10-21T00:52:25.294Z,71.91
2022-10-21T00:54:26.585Z,71.96
2022-10-21T00:56:27.882Z,72.11
2022-10-21T00:58:29.170Z,72.09
2022-10-21T01:00:30.443Z,72.46
2022-10-21T01:02:31.755Z,72.30
2022-10-21T01:04:33.030Z,72.34
2022-10-21T01:06:34.322Z,72.42
2022-10-21T01:08:35.623Z,72.66
2022-10-21T01:10:36.931Z,72.85
2022-10-21T01:12:38.218Z,72.46
2022-10-21T01:14:39.492Z,72.72
2022-10-21T01:16:43.105Z,72.78
2022-10-21T01:18:47.015Z,72.93
2022-10-21T01:20:48.331Z,72.48
2022-10-21T01:22:49.607Z,72.50
2022-10-21T01:24:50.879Z,72.64
2022-10-21T01:26:52.209Z,72.58
2022-10-21T01:28:53.478Z,72.39
2022-10-21T01:30:54.819Z,72.54
2022-10-21T01:32:56.087Z,72.59
2022-10-21T01:34:57.351Z,72.54
2022-10-21T01:36:58.637Z,72.86
2022-10-21T01:39:01.763Z,72.62
2022-10-21T01:41:03.090Z,72.85
2022-10-21T01:43:04.487Z,73.34
2022-10-21T01:45:05.812Z,73.15
2022-10-21T01:47:07.074Z,72.85
2022-10-21T01:49:08.356Z,73.08
2022-10-21T01:51:09.619Z,73.02
2022-10-21T01:53:10.969Z,72.97
2022-10-21T01:55:12.289Z,72.97
2022-10-21T01:57:13.559Z,72.99
2022-10-21T01:59:14.842Z,72.87
2022-10-21T02:01:16.242Z,72.57
2022-10-21T02:03:17.597Z,72.95
2022-10-21T02:05:18.854Z,72.64
2022-10-21T02:07:20.163Z,72.56
2022-10-21T02:09:21.488Z,72.21
2022-10-21T02:11:22.956Z,72.20
2022-10-21T02:13:24.264Z,72.44
2022-10-21T02:15:25.557Z,72.32
2022-10-21T02:17:26.843Z,72.44
2022-10-21T02:19:28.230Z,72.46
2022-10-21T02:21:29.599Z,72.54
2022-10-21T02:23:30.876Z,72.25
2022-10-21T02:25:32.147Z,72.63
2022-10-21T02:27:33.494Z,73.27
2022-10-21T02:29:34.786Z,72.86
2022-10-21T02:31:36.054Z,73.22
2022-10-21T02:33:37.514Z,73.43
2022-10-21T02:35:38.791Z,73.63
2022-10-21T02:39:46.310Z,73.26
2022-10-21T02:41:47.583Z,73.36
2022-10-21T02:43:48.854Z,73.48
2022-10-21T02:45:50.168Z,73.93
2022-10-21T02:47:51.484Z,73.84
2022-10-21T02:49:52.822Z,73.54
2022-10-21T02:51:54.090Z,73.34
2022-10-21T02:53:55.356Z,73.35
2022-10-21T02:55:56.627Z,73.49
2022-10-21T02:57:58.142Z,73.49
2022-10-21T02:59:59.432Z,73.50
2022-10-21T03:02:00.710Z,73.14
2022-10-21T03:04:02.000Z,73.46
2022-10-21T03:06:03.425Z,72.94
2022-10-21T03:08:04.745Z,73.48
2022-10-21T03:10:06.083Z,73.16
2022-10-21T03:12:07.367Z,73.34
2022-10-21T03:14:08.642Z,73.04
2022-10-21T03:16:09.969Z,73.13
2022-10-21T03:18:11.250Z,73.48
2022-10-21T03:20:12.568Z,73.13
2022-10-21T03:22:13.839Z,73.29
2022-10-21T03:24:19.886Z,73.37
2022-10-21T03:26:29.531Z,73.24
2022-10-21T03:28:30.797Z,73.35
2022-10-21T03:30:32.090Z,73.50
2022-10-21T03:32:33.390Z,73.54
2022-10-21T03:34:34.661Z,73.50
2022-10-21T03:36:35.953Z,73.93
2022-10-21T03:38:37.288Z,73.53
2022-10-21T03:40:38.567Z,73.94
2022-10-21T03:42:40.344Z,73.99
2022-10-21T03:44:41.930Z,73.86
2022-10-21T03:46:43.198Z,73.60
2022-10-21T03:48:44.466Z,73.67
2022-10-21T03:50:45.736Z,73.76
2022-10-21T03:52:47.218Z,73.76
2022-10-21T03:54:49.223Z,73.68
2022-10-21T03:56:50.498Z,73.59
2022-10-21T03:58:56.255Z,73.99
2022-10-21T04:00:59.742Z,73.88
2022-10-21T04:03:01.031Z,73.55
2022-10-21T04:05:02.350Z,73.80
2022-10-21T04:07:03.623Z,73.40
2022-10-21T04:09:05.027Z,73.45
2022-10-21T04:11:06.321Z,73.48
2022-10-21T04:13:07.607Z,73.80
2022-10-21T04:15:08.887Z,73.78
2022-10-21T04:17:10.200Z,73.80
2022-10-21T04:19:11.459Z,73.89
2022-10-21T04:21:12.789Z,74.03
2022-10-21T04:23:14.136Z,73.99
2022-10-21T04:25:15.447Z,74.05
2022-10-21T04:27:16.750Z,74.35
2022-10-21T04:29:18.062Z,74.09
2022-10-21T04:31:19.351Z,74.07
2022-10-21T04:33:20.617Z,74.15
2022-10-21T04:35:21.929Z,73.98
2022-10-21T04:37:23.198Z,73.86
2022-10-21T04:39:24.508Z,74.06
2022-10-21T04:41:25.766Z,74.19
2022-10-21T04:43:27.109Z,74.03
2022-10-21T04:45:28.474Z,74.37
2022-10-21T04:47:29.780Z,74.14
2022-10-21T04:49:31.037Z,74.13
2022-10-21T04:53:38.474Z,74.17
2022-10-21T04:55:40.305Z,73.73
2022-10-21T04:57:42.756Z,74.12
2022-10-21T04:59:44.045Z,73.80
2022-10-21T05:01:45.304Z,73.84
2022-10-21T05:03:46.574Z,73.69
2022-10-21T05:05:47.851Z,73.56
2022-10-21T05:07:49.127Z,73.86
2022-10-21T05:09:50.441Z,73.62
2022-10-21T05:11:51.705Z,74.10
2022-10-21T05:13:52.996Z,73.68
2022-10-21T05:15:54.307Z,73.46
2022-10-21T05:17:55.622Z,73.48
2022-10-21T05:19:56.923Z,73.79
2022-10-21T05:21:58.217Z,73.74
2022-10-21T05:23:59.525Z,73.91
2022-10-21T05:26:00.825Z,73.89
2022-10-21T05:28:02.127Z,73.78
2022-10-21T05:30:04.347Z,74.08
2022-10-21T05:32:05.660Z,73.92
2022-10-21T05:34:06.938Z,73.77
2022-10-21T05:36:08.699Z,74.01
2022-10-21T05:38:09.989Z,73.66
2022-10-21T05:40:11.258Z,73.46
2022-10-21T05:42:12.522Z,73.61
2022-10-21T05:44:13.835Z,73.42
2022-10-21T05:46:15.160Z,73.81
2022-10-21T05:48:19.554Z,73.90
2022-10-21T05:50:20.886Z,74.21
2022-10-21T05:52:22.175Z,74.26
2022-10-21T05:54:23.461Z,73.94
2022-10-21T05:56:24.955Z,73.82
2022-10-21T05:58:26.226Z,74.22
2022-10-21T06:00:27.497Z,74.26
2022-10-21T06:02:28.803Z,74.18
2022-10-21T06:04:31.335Z,74.19
2022-10-21T06:06:34.133Z,74.76
2022-10-21T06:08:35.553Z,74.25
2022-10-21T06:10:36.875Z,74.27
2022-10-21T06:12:38.193Z,74.41
2022-10-21T06:14:39.481Z,74.55
2022-10-21T06:16:40.759Z,74.22
2022-10-21T06:18:42.042Z,74.61
2022-10-21T06:20:43.319Z,74.14
2022-10-21T06:22:44.642Z,74.45
2022-10-21T06:24:45.904Z,74.24
2022-10-21T06:26:47.207Z,73.84
2022-10-21T06:28:48.539Z,74.30
2022-10-21T06:30:49.830Z,73.91
2022-10-21T06:32:51.426Z,73.91
2022-10-21T06:34:52.702Z,74.19
2022-10-21T06:36:53.978Z,74.00
2022-10-21T06:38:55.315Z,74.28
2022-10-21T06:40:56.622Z,72.97
2022-10-21T06:42:57.905Z,72.76
2022-10-21T06:45:00.317Z,72.59
2022-10-21T06:47:01.937Z,73.39
2022-10-21T06:49:03.266Z,73.21
2022-10-21T06:51:04.544Z,73.24
2022-10-21T06:53:05.881Z,73.87
2022-10-21T06:55:07.146Z,73.82
2022-10-21T06:57:08.406Z,73.80
2022-10-21T06:59:09.694Z,73.48
2022-10-21T07:01:21.398Z,73.61
2022-10-21T07:03:32.227Z,73.14
2022-10-21T07:05:33.514Z,73.90
2022-10-21T07:07:34.841Z,73.68
2022-10-21T07:09:36.222Z,73.84
2022-10-21T07:11:37.549Z,73.75
2022-10-21T07:13:38.832Z,73.81
2022-10-21T07:15:40.138Z,74.10
2022-10-21T07:17:41.703Z,74.06
2022-10-21T07:19:43.230Z,74.03
2022-10-21T07:21:44.644Z,74.31
2022-10-21T07:23:45.954Z,74.05
2022-10-21T07:25:47.250Z,74.03
2022-10-21T07:27:48.858Z,74.21
2022-10-21T07:29:50.341Z,74.22
2022-10-21T07:31:51.822Z,74.19
2022-10-21T07:33:53.190Z,73.77
2022-10-21T07:35:54.522Z,73.92
2022-10-21T07:37:55.795Z,74.02
2022-10-21T07:39:57.071Z,73.85
2022-10-21T07:41:58.408Z,73.78
2022-10-21T07:43:59.719Z,73.83
2022-10-21T07:46:03.190Z,73.58
2022-10-21T07:48:07.383Z,73.92
2022-10-21T07:50:08.723Z,73.84
2022-10-21T07:52:10.078Z,73.74
2022-10-21T07:54:11.391Z,74.11
2022-10-21T07:56:12.701Z,73.54
2022-10-21T07:58:13.979Z,73.63
2022-10-21T08:00:15.293Z,73.41
2022-10-21T08:02:16.566Z,73.74
2022-10-21T08:04:17.889Z,73.93
2022-10-21T08:06:19.295Z,73.63
2022-10-21T08:08:23.650Z,73.64
2022-10-21T08:10:24.937Z,73.71
2022-10-21T08:12:26.211Z,73.55
2022-10-21T08:14:27.482Z,73.15
2022-10-21T08:16:28.794Z,73.16
2022-10-21T08:18:30.143Z,73.08
2022-10-21T08:20:31.421Z,72.78
2022-10-21T08:22:32.690Z,72.54
2022-10-21T08:24:37.309Z,72.85
2022-10-21T08:26:41.172Z,72.73
2022-10-21T08:28:42.475Z,72.89
2022-10-21T08:30:43.902Z,73.07
2022-10-21T08:32:45.195Z,73.22
2022-10-21T08:34:46.511Z,73.52
2022-10-21T08:36:47.848Z,73.64
2022-10-21T08:38:49.159Z,73.69
2022-10-21T08:40:53.499Z,73.69
2022-10-21T08:42:56.997Z,73.83
2022-10-21T08:44:58.255Z,74.05
2022-10-21T08:46:59.544Z,73.83
2022-10-21T08:49:00.834Z,73.71
2022-10-21T08:51:02.110Z,73.68
2022-10-21T08:53:03.471Z,73.79
2022-10-21T08:55:04.799Z,73.91
2022-10-21T08:57:06.070Z,73.72
2022-10-21T08:59:07.383Z,73.90
2022-10-21T09:01:08.994Z,64.30
2022-10-21T09:03:10.291Z,61.26
2022-10-21T09:05:11.619Z,59.98
2022-10-21T09:07:12.912Z,58.15
2022-10-21T09:09:14.499Z,63.01
2022-10-21T09:11:19.621Z,63.38
2022-10-21T09:13:20.947Z,63.77
2022-10-21T09:15:22.207Z,63.84
2022-10-21T09:17:23.543Z,65.34
2022-10-21T09:19:24.846Z,66.04
2022-10-21T09:21:26.102Z,66.51
2022-10-21T09:23:27.420Z,66.49
2022-10-21T09:25:28.710Z,66.26
2022-10-21T09:27:50.958Z,66.44
2022-10-21T09:29:51.466Z,66.50
2022-10-21T09:31:57.264Z,66.58
2022-10-21T09:33:59.878Z,67.09
2022-10-21T09:36:01.177Z,66.74
2022-10-21T09:38:02.466Z,67.16
2022-10-21T09:40:03.790Z,67.19
2022-10-21T09:42:13.509Z,67.58
2022-10-21T09:44:24.492Z,67.59
2022-10-21T09:46:25.774Z,67.88
2022-10-21T09:48:27.121Z,68.17
2022-10-21T09:50:28.443Z,68.19
2022-10-21T09:52:29.758Z,68.70
2022-10-21T09:54:31.060Z,68.95
2022-10-21T09:56:32.322Z,68.91
2022-10-21T09:58:34.867Z,69.08
2022-10-21T10:00:36.173Z,69.20
2022-10-21T10:02:37.719Z,69.65
2022-10-21T10:04:39.301Z,69.95
2022-10-21T10:06:40.619Z,69.65
2022-10-21T10:08:42.038Z,69.79
2022-10-21T10:10:43.499Z,70.12
2022-10-21T10:12:44.823Z,70.15
2022-10-21T10:14:46.125Z,70.12
2022-10-21T10:16:47.449Z,70.40
2022-10-21T10:18:48.731Z,70.08
2022-10-21T10:20:53.061Z,69.95
2022-10-21T10:22:58.279Z,69.98
2022-10-21T10:24:59.562Z,69.80
2022-10-21T10:27:00.838Z,70.30
2022-10-21T10:29:02.113Z,70.52
2022-10-21T10:31:03.607Z,70.52
2022-10-21T10:33:04.875Z,70.65
2022-10-21T10:35:06.222Z,71.06
2022-10-21T10:37:07.548Z,70.58
2022-10-21T10:39:08.842Z,70.45
2022-10-21T10:41:10.134Z,70.53
2022-10-21T10:43:11.454Z,70.94
2022-10-21T10:45:12.947Z,70.86
2022-10-21T10:47:14.239Z,70.75
2022-10-21T10:49:15.727Z,71.00
2022-10-21T10:51:17.007Z,71.13
2022-10-21T10:53:18.295Z,70.76
2022-10-21T10:55:19.633Z,71.20
2022-10-21T10:57:20.981Z,71.51
2022-10-21T10:59:23.592Z,71.47
2022-10-21T11:01:24.890Z,71.20
2022-10-21T11:03:26.431Z,71.36
2022-10-21T11:05:27.810Z,71.50
2022-10-21T11:07:29.134Z,71.50
2022-10-21T11:09:30.448Z,71.82
2022-10-21T11:11:31.774Z,71.52
2022-10-21T11:13:41.828Z,71.33
2022-10-21T11:15:43.485Z,71.52
2022-10-21T11:17:44.772Z,71.57
2022-10-21T11:19:46.051Z,71.30
2022-10-21T11:21:47.666Z,71.30
2022-10-21T11:23:48.939Z,71.76
2022-10-21T11:25:50.211Z,71.44
2022-10-21T11:27:51.493Z,71.41
2022-10-21T11:29:52.975Z,71.05
2022-10-21T11:32:10.622Z,71.17
2022-10-21T11:34:13.925Z,71.34
2022-10-21T11:36:15.258Z,71.11
2022-10-21T11:38:16.535Z,71.56
2022-10-21T11:40:18.254Z,71.49
2022-10-21T11:42:19.529Z,71.74
2022-10-21T11:44:20.806Z,71.63
2022-10-21T11:46:22.094Z,71.61
2022-10-21T11:48:23.350Z,71.53
2022-10-21T11:50:24.623Z,71.74
2022-10-21T11:52:29.123Z,72.00
2022-10-21T11:54:30.418Z,71.64
2022-10-21T11:56:31.702Z,71.67
2022-10-21T11:58:33.000Z,71.56
2022-10-21T12:00:34.314Z,71.39
2022-10-21T12:02:35.716Z,71.45
2022-10-21T12:04:37.086Z,71.32
2022-10-21T12:06:38.632Z,71.56
2022-10-21T12:08:45.205Z,71.63
2022-10-21T12:10:47.794Z,71.52
2022-10-21T12:12:49.058Z,71.53
2022-10-21T12:14:50.384Z,71.23
2022-10-21T12:16:51.689Z,71.11
2022-10-21T12:18:53.030Z,71.13
2022-10-21T12:20:54.538Z,70.91
2022-10-21T12:22:55.801Z,70.88
2022-10-21T12:24:57.090Z,70.58
2022-10-21T12:26:58.368Z,70.64
2022-10-21T12:28:59.637Z,70.63
2022-10-21T12:31:00.921Z,70.79
2022-10-21T12:33:02.183Z,70.59
2022-10-21T12:35:03.450Z,70.59
2022-10-21T12:37:04.718Z,71.01
2022-10-21T12:39:05.995Z,70.68
2022-10-21T12:41:07.269Z,70.30
2022-10-21T12:43:08.531Z,69.18
2022-10-21T12:45:10.195Z,68.64
2022-10-21T12:47:11.472Z,68.39
2022-10-21T12:49:12.783Z,68.97
2022-10-21T12:51:14.457Z,68.89
2022-10-21T12:53:15.757Z,69.05
2022-10-21T12:55:17.027Z,68.52
2022-10-21T12:57:18.293Z,68.07
2022-10-21T12:59:19.598Z,68.33
2022-10-21T13:01:20.980Z,67.79
2022-10-21T13:03:22.282Z,67.52
2022-10-21T13:05:23.571Z,67.50
2022-10-21T13:07:24.839Z,68.81
2022-10-21T13:09:26.137Z,69.22
2022-10-21T13:11:27.412Z,68.93
2022-10-21T13:13:28.902Z,68.82
2022-10-21T13:15:30.234Z,68.78
2022-10-21T13:17:31.612Z,69.01
2022-10-21T13:19:33.238Z,68.94
2022-10-21T13:21:34.563Z,69.88
2022-10-21T13:23:35.873Z,69.25
2022-10-21T13:25:37.137Z,68.43
2022-10-21T13:27:38.624Z,67.53
2022-10-21T13:29:39.996Z,67.65
2022-10-21T13:31:41.269Z,67.26
2022-10-21T13:33:42.622Z,67.21
2022-10-21T13:35:44.051Z,67.26
2022-10-21T13:37:45.378Z,67.34
2022-10-21T13:39:46.851Z,68.39
2022-10-21T13:41:48.122Z,67.20
2022-10-21T13:43:49.435Z,68.12
2022-10-21T13:45:50.740Z,69.01
2022-10-21T13:47:57.704Z,69.75
2022-10-21T13:49:59.001Z,69.90
2022-10-21T13:52:00.299Z,69.87
2022-10-21T13:54:01.635Z,70.17
2022-10-21T13:56:02.974Z,70.33
2022-10-21T13:58:04.286Z,70.39
2022-10-21T14:00:05.559Z,70.49
2022-10-21T14:02:06.851Z,70.30
2022-10-21T14:04:08.759Z,70.78
2022-10-21T14:06:10.228Z,70.56
2022-10-21T14:08:11.518Z,70.34
2022-10-21T14:10:12.802Z,70.71
2022-10-21T14:12:14.070Z,70.77
2022-10-21T14:14:15.363Z,70.52
2022-10-21T14:16:16.623Z,70.66
2022-10-21T14:18:17.879Z,70.90
2022-10-21T14:20:22.160Z,70.84
2022-10-21T14:22:23.438Z,70.82
2022-10-21T14:24:24.719Z,70.83
2022-10-21T14:26:30.854Z,70.94
2022-10-21T14:28:32.134Z,70.87
2022-10-21T14:30:33.475Z,71.36
2022-10-21T14:32:34.794Z,70.90
2022-10-21T14:34:36.080Z,70.98
2022-10-21T14:36:37.378Z,70.94
2022-10-21T14:38:38.654Z,71.34
2022-10-21T14:40:39.975Z,71.29
2022-10-21T14:42:41.494Z,71.32
2022-10-21T14:44:42.998Z,70.84
2022-10-21T14:46:44.343Z,70.84
2022-10-21T14:48:45.611Z,71.37
2022-10-21T14:50:46.883Z,71.04
2022-10-21T14:52:48.223Z,71.63
2022-10-21T14:54:49.538Z,71.02
2022-10-21T14:56:50.831Z,71.31
2022-10-21T14:58:52.220Z,71.36
2022-10-21T15:00:53.494Z,71.33
2022-10-21T15:02:54.787Z,70.89
2022-10-21T15:04:56.094Z,71.06
2022-10-21T15:06:57.374Z,70.63
2022-10-21T15:09:01.529Z,70.64
2022-10-21T15:11:04.007Z,71.21
2022-10-21T15:13:05.501Z,70.97
2022-10-21T15:15:06.786Z,68.83
2022-10-21T15:17:08.067Z,68.51
2022-10-21T15:19:09.432Z,68.86
2022-10-21T15:21:10.705Z,68.96
2022-10-21T15:23:12.869Z,69.57
2022-10-21T15:25:14.398Z,68.98
2022-10-21T15:27:15.669Z,68.65
2022-10-21T15:29:16.942Z,68.31
2022-10-21T15:31:18.291Z,69.01
2022-10-21T15:33:19.614Z,68.91
2022-10-21T15:35:20.892Z,68.49
2022-10-21T15:37:22.254Z,68.72
2022-10-21T15:39:23.595Z,68.71
2022-10-21T15:41:25.016Z,68.50
2022-10-21T15:43:26.291Z,68.74
2022-10-21T15:45:27.606Z,69.11
2022-10-21T15:47:28.926Z,69.03
2022-10-21T15:49:30.221Z,69.28
2022-10-21T15:51:31.486Z,69.86
2022-10-21T15:53:32.776Z,70.52
2022-10-21T15:55:34.051Z,70.90
2022-10-21T15:57:35.328Z,70.70
2022-10-21T15:59:36.638Z,69.54
2022-10-21T16:01:37.958Z,69.30
2022-10-21T16:03:39.264Z,69.48
2022-10-21T16:05:40.554Z,69.43
2022-10-21T16:07:41.902Z,69.65
2022-10-21T16:09:43.195Z,70.01
2022-10-21T16:11:54.839Z,69.89
2022-10-21T16:14:00.077Z,69.40
2022-10-21T16:16:01.549Z,68.37
2022-10-21T16:18:02.819Z,67.93
2022-10-21T16:20:04.165Z,68.08
2022-10-21T16:22:08.842Z,68.27
2022-10-21T16:24:10.118Z,67.68
2022-10-21T16:26:11.395Z,68.26
2022-10-21T16:28:12.709Z,68.02
2022-10-21T16:30:13.994Z,68.19
2022-10-21T16:32:15.477Z,68.23
2022-10-21T16:34:16.761Z,67.99
2022-10-21T16:36:22.356Z,68.28
2022-10-21T16:38:23.655Z,67.93
2022-10-21T16:40:24.954Z,68.73
2022-10-21T16:42:26.242Z,69.23
2022-10-21T16:44:28.753Z,69.13
2022-10-21T16:46:30.195Z,68.43
2022-10-21T16:48:31.495Z,68.12
2022-10-21T16:50:35.454Z,68.52
2022-10-21T16:52:37.805Z,68.40
2022-10-21T16:54:39.327Z,68.55
2022-10-21T16:56:40.850Z,69.55
2022-10-21T16:58:42.192Z,70.25
2022-10-21T17:00:44.617Z,70.25
2022-10-21T17:02:45.945Z,70.25
2022-10-21T17:04:50.166Z,70.21
2022-10-21T17:06:51.711Z,70.66
2022-10-21T17:08:53.028Z,70.44
2022-10-21T17:10:54.366Z,70.71
2022-10-21T17:12:58.935Z,70.77
2022-10-21T17:15:00.344Z,69.53
2022-10-21T17:17:01.638Z,68.12
2022-10-21T17:19:05.595Z,68.27
2022-10-21T17:21:06.864Z,68.60
2022-10-21T17:23:10.212Z,69.06
2022-10-21T17:25:11.504Z,69.06
2022-10-21T17:27:14.717Z,68.87
2022-10-21T17:29:18.594Z,68.92
2022-10-21T17:31:20.097Z,68.75
2022-10-21T17:33:21.383Z,69.24
2022-10-21T17:35:25.808Z,68.71
2022-10-21T17:37:29.991Z,68.18
2022-10-21T17:39:31.267Z,68.21
2022-10-21T17:41:32.572Z,68.54
2022-10-21T17:43:33.876Z,69.15
2022-10-21T17:45:35.189Z,68.82
2022-10-21T17:47:36.986Z,68.09
2022-10-21T17:49:39.138Z,68.75
2022-10-21T17:51:40.445Z,69.20
2022-10-21T17:53:41.768Z,69.86
2022-10-21T17:55:43.057Z,70.00
2022-10-21T17:57:44.375Z,69.75
2022-10-21T17:59:45.854Z,69.08
2022-10-21T18:01:47.941Z,68.33
2022-10-21T18:03:49.261Z,68.15
2022-10-21T18:05:50.767Z,67.81
2022-10-21T18:07:52.063Z,67.96
2022-10-21T18:09:53.407Z,67.82
2022-10-21T18:11:54.769Z,67.64
2022-10-21T18:13:56.242Z,68.36
2022-10-21T18:15:57.684Z,69.43
2022-10-21T18:17:59.014Z,69.21
2022-10-21T18:20:00.311Z,69.97
2022-10-21T18:22:01.622Z,69.92
2022-10-21T18:24:02.916Z,69.94
2022-10-21T18:26:04.236Z,69.66
2022-10-21T18:28:05.542Z,69.90
2022-10-21T18:30:06.863Z,69.19
2022-10-21T18:32:12.451Z,69.37
2022-10-21T18:34:16.027Z,68.97
2022-10-21T18:36:17.357Z,69.34
2022-10-21T18:38:18.631Z,69.25
2022-10-21T18:40:19.934Z,69.23
2022-10-21T18:42:21.201Z,69.42
2022-10-21T18:44:22.535Z,69.11
2022-10-21T18:46:23.838Z,69.41
2022-10-21T18:48:25.113Z,69.66
2022-10-21T18:50:26.417Z,70.15
2022-10-21T18:52:27.690Z,70.44
2022-10-21T18:54:28.987Z,70.48
2022-10-21T18:56:30.318Z,70.58
2022-10-21T18:58:31.802Z,70.71
2022-10-21T19:00:33.083Z,70.74
2022-10-21T19:02:34.386Z,70.61
2022-10-21T19:04:35.650Z,70.37
2022-10-21T19:06:37.050Z,70.58
2022-10-21T19:08:38.707Z,70.58
2022-10-21T19:10:42.080Z,69.83
2022-10-21T19:12:43.350Z,70.34
2022-10-21T19:14:44.696Z,71.03
2022-10-21T19:16:55.058Z,70.28
2022-10-21T19:18:56.354Z,69.97
2022-10-21T19:20:57.728Z,69.15
2022-10-21T19:22:59.028Z,68.25
2022-10-21T19:25:00.333Z,67.21
2022-10-21T19:27:01.635Z,67.81
2022-10-21T19:29:03.185Z,68.50
2022-10-21T19:31:10.158Z,69.13
2022-10-21T19:33:11.464Z,69.03
2022-10-21T19:35:12.770Z,69.01
2022-10-21T19:37:14.042Z,68.07
2022-10-21T19:39:15.419Z,68.80
2022-10-21T19:41:16.694Z,69.11
2022-10-21T19:43:17.971Z,69.31
2022-10-21T19:45:19.252Z,69.39
2022-10-21T19:47:20.531Z,69.63
2022-10-21T19:49:21.869Z,69.93
2022-10-21T19:51:23.152Z,70.36
2022-10-21T19:53:24.421Z,70.17
2022-10-21T19:55:25.740Z,69.92
2022-10-21T19:57:27.010Z,70.13
2022-10-21T19:59:28.272Z,70.15
2022-10-21T20:01:29.688Z,70.08
2022-10-21T20:03:31.034Z,70.37
2022-10-21T20:05:34.456Z,69.82
2022-10-21T20:07:35.732Z,69.94
2022-10-21T20:09:38.841Z,70.36
2022-10-21T20:11:40.447Z,69.72
2022-10-21T20:13:41.770Z,69.97
2022-10-21T20:15:43.063Z,69.95
2022-10-21T20:17:44.353Z,69.82
2022-10-21T20:19:45.637Z,69.87
2022-10-21T20:21:47.131Z,69.40
2022-10-21T20:23:51.267Z,70.90
2022-10-21T20:25:52.554Z,70.02
2022-10-21T20:27:53.826Z,70.49
2022-10-21T20:29:55.644Z,70.79
2022-10-21T20:32:00.081Z,70.95
2022-10-21T20:34:01.407Z,70.71
2022-10-21T20:36:02.667Z,70.85
2022-10-21T20:38:03.943Z,71.67
2022-10-21T20:40:05.240Z,71.68
2022-10-21T20:42:06.623Z,65.50
2022-10-21T20:44:07.894Z,69.14
2022-10-21T20:46:09.155Z,68.44
2022-10-21T20:48:10.469Z,68.43
2022-10-21T20:50:11.746Z,68.05
2022-10-21T20:52:13.002Z,68.48
2022-10-21T20:54:14.342Z,68.50
2022-10-21T20:56:15.623Z,68.89
2022-10-21T20:58:16.934Z,68.65
2022-10-21T21:00:18.253Z,68.52
2022-10-21T21:02:19.522Z,68.39
2022-10-21T21:04:21.947Z,68.67
2022-10-21T21:06:23.254Z,69.75
2022-10-21T21:08:24.582Z,68.64
2022-10-21T21:10:25.889Z,67.70
2022-10-21T21:12:27.218Z,67.13
2022-10-21T21:14:31.311Z,66.84
2022-10-21T21:16:32.582Z,68.12
2022-10-21T21:18:33.899Z,68.29
2022-10-21T21:20:35.178Z,66.90
2022-10-21T21:22:37.456Z,67.12
2022-10-21T21:24:39.020Z,67.63
2022-10-21T21:26:41.253Z,68.03
2022-10-21T21:28:42.547Z,68.36
2022-10-21T21:30:43.818Z,68.58
2022-10-21T21:32:45.309Z,69.02
2022-10-21T21:34:54.231Z,69.08
2022-10-21T21:36:55.838Z,69.05
2022-10-21T21:38:57.158Z,69.30
2022-10-21T21:40:59.338Z,69.46
2022-10-21T21:43:00.606Z,68.92
2022-10-21T21:45:01.962Z,68.77
2022-10-21T21:47:03.314Z,68.77
2022-10-21T21:49:06.079Z,68.82
2022-10-21T21:51:09.662Z,68.72
2022-10-21T21:53:10.926Z,69.03
2022-10-21T21:55:12.236Z,68.84
2022-10-21T21:57:27.465Z,68.24
2022-10-21T21:59:29.281Z,68.23
2022-10-21T22:01:30.655Z,69.78
2022-10-21T22:03:32.010Z,69.98
2022-10-21T22:05:33.375Z,69.42
2022-10-21T22:07:34.659Z,68.58
2022-10-21T22:09:35.933Z,68.89
2022-10-21T22:11:37.415Z,68.77
2022-10-21T22:13:38.666Z,69.12
2022-10-21T22:15:48.464Z,68.90
2022-10-21T22:17:50.075Z,69.47
2022-10-21T22:19:53.875Z,68.62
2022-10-21T22:21:55.363Z,68.36
2022-10-21T22:23:56.714Z,67.74
2022-10-21T22:25:58.002Z,68.49
2022-10-21T22:27:59.275Z,69.09
2022-10-21T22:30:00.550Z,69.09
2022-10-21T22:32:01.809Z,69.18
2022-10-21T22:34:04.365Z,69.23
2022-10-21T22:36:07.926Z,69.04
2022-10-21T22:38:09.253Z,67.83
2022-10-21T22:40:10.531Z,68.65
2022-10-21T22:42:11.987Z,68.83
2022-10-21T22:44:13.268Z,68.72
2022-10-21T22:46:29.143Z,68.95
2022-10-21T22:48:30.991Z,68.60
2022-10-21T22:50:32.270Z,68.25
2022-10-21T22:52:33.539Z,67.86
2022-10-21T22:54:49.011Z,67.81
2022-10-21T22:56:50.985Z,67.74
2022-10-21T22:58:52.294Z,67.86
2022-10-21T23:02:59.880Z,68.00
2022-10-21T23:05:01.185Z,68.01
2022-10-21T23:07:02.523Z,65.17
2022-10-21T23:09:03.952Z,65.45
2022-10-21T23:11:05.299Z,67.62
2022-10-21T23:13:06.635Z,67.73
2022-10-21T23:15:07.963Z,68.16
2022-10-21T23:17:09.679Z,68.28
2022-10-21T23:21:17.122Z,69.15
2022-10-21T23:23:18.417Z,69.04
2022-10-21T23:25:19.837Z,69.44
2022-10-21T23:27:21.169Z,69.73
2022-10-21T23:29:22.488Z,70.11
2022-10-21T23:31:23.771Z,70.28
2022-10-21T23:33:25.070Z,70.76
2022-10-21T23:35:26.378Z,70.90
2022-10-21T23:37:27.674Z,71.01
2022-10-21T23:39:28.921Z,71.31
2022-10-21T23:41:30.230Z,71.34
2022-10-21T23:43:31.553Z,71.26
2022-10-21T23:45:32.904Z,71.71
2022-10-21T23:47:34.206Z,71.59
2022-10-21T23:49:35.516Z,71.94
2022-10-21T23:51:36.802Z,71.74
2022-10-21T23:53:38.086Z,71.67
2022-10-21T23:55:39.359Z,71.68
2022-10-21T23:57:40.856Z,71.71
2022-10-21T23:59:42.386Z,72.04
